Time;durP1;ratioP1;P1;durP2;ratioP2;P2;SDS_P1;SDS_P2;PMS_P1;PMS_P2;Temp;Humidity;BMP_temperature;BMP_pressure;BME280_temperature;BME280_humidity;BME280_pressure;Samples;Min_cycle;Max_cycle;Signal;HPM_P1;HPM_P2
2021/10/24 00:01:11;;;;;;;0.98;0.30;;;6.20;99.90;;;;;;4948570;28;20074;-64
2021/10/24 00:03:37;;;;;;;0.50;0.50;;;6.10;99.90;;;;;;4949264;28;20069;-64
2021/10/24 00:06:04;;;;;;;0.50;0.50;;;6.20;99.90;;;;;;4946488;28;20051;-64
2021/10/24 00:08:31;;;;;;;0.40;0.30;;;6.10;99.90;;;;;;4948042;28;20082;-63
2021/10/24 00:10:58;;;;;;;0.60;0.30;;;6.10;99.90;;;;;;4949162;28;20146;-63
2021/10/24 00:13:26;;;;;;;0.35;0.32;;;6.10;99.90;;;;;;4947573;28;20512;-64
2021/10/24 00:15:53;;;;;;;0.30;0.30;;;6.20;99.90;;;;;;4948525;28;20043;-65
2021/10/24 00:18:20;;;;;;;0.30;0.30;;;6.20;99.90;;;;;;4949300;28;20110;-64
2021/10/24 00:20:47;;;;;;;0.30;0.30;;;6.10;99.90;;;;;;4948365;28;20424;-63
2021/10/24 00:23:14;;;;;;;0.45;0.45;;;6.10;99.90;;;;;;4949274;28;20043;-66
2021/10/24 00:25:41;;;;;;;0.30;0.20;;;6.10;99.90;;;;;;4949006;28;20043;-63
2021/10/24 00:28:09;;;;;;;1.42;0.30;;;6.10;99.90;;;;;;4945768;28;20117;-63
2021/10/24 00:30:48;;;;;;;0.40;0.40;;;6.10;99.90;;;;;;4946622;28;20051;-62
2021/10/24 00:33:16;;;;;;;0.50;0.40;;;6.10;99.90;;;;;;4947330;28;20043;-66
2021/10/24 00:35:44;;;;;;;0.45;0.30;;;6.10;99.90;;;;;;4948393;28;20449;-63
2021/10/24 00:38:11;;;;;;;0.30;0.30;;;6.10;99.90;;;;;;4947308;28;20529;-65
2021/10/24 00:40:38;;;;;;;0.95;0.20;;;6.10;99.90;;;;;;4948950;28;20051;-65
2021/10/24 00:43:05;;;;;;;1.17;0.55;;;6.10;99.90;;;;;;4947068;28;20051;-68
2021/10/24 00:45:32;;;;;;;0.30;0.30;;;6.10;99.90;;;;;;4947847;28;20549;-64
2021/10/24 00:47:59;;;;;;;2.58;1.40;;;6.10;99.90;;;;;;4959929;28;20043;-64
2021/10/24 00:50:27;;;;;;;0.52;0.52;;;6.20;99.90;;;;;;4963595;28;20419;-64
2021/10/24 00:52:54;;;;;;;0.30;0.30;;;6.20;99.90;;;;;;4947919;28;20106;-64
2021/10/24 00:55:23;;;;;;;0.65;0.63;;;6.10;99.90;;;;;;4947854;28;20484;-64
2021/10/24 00:57:51;;;;;;;0.65;0.40;;;6.00;99.90;;;;;;4947842;28;20070;-64
2021/10/24 01:00:18;;;;;;;0.45;0.43;;;6.00;99.90;;;;;;4947017;28;20110;-65
2021/10/24 01:02:46;;;;;;;0.50;0.40;;;6.00;99.90;;;;;;4953259;28;20050;-63
2021/10/24 01:05:15;;;;;;;0.40;0.40;;;5.90;99.90;;;;;;4980739;28;20699;-64
2021/10/24 01:07:46;;;;;;;0.90;0.30;;;5.90;99.90;;;;;;4982711;28;20046;-65
2021/10/24 01:10:15;;;;;;;0.80;0.35;;;5.90;99.90;;;;;;4961681;28;20483;-67
2021/10/24 01:12:44;;;;;;;0.80;0.57;;;5.80;99.90;;;;;;4966696;28;20488;-67
2021/10/24 01:15:11;;;;;;;0.20;0.20;;;5.80;99.90;;;;;;4965212;28;20109;-68
2021/10/24 01:17:39;;;;;;;0.45;0.40;;;5.80;99.90;;;;;;4957562;28;20059;-64
2021/10/24 01:20:08;;;;;;;1.17;0.50;;;5.80;99.90;;;;;;4961607;28;20508;-64
2021/10/24 01:22:39;;;;;;;0.30;0.30;;;5.80;99.90;;;;;;4960056;28;20083;-66
2021/10/24 01:25:07;;;;;;;0.68;0.57;;;5.80;99.90;;;;;;4965757;28;20057;-65
2021/10/24 01:27:38;;;;;;;0.82;0.60;;;5.80;99.90;;;;;;4950721;28;20043;-65
2021/10/24 01:30:06;;;;;;;0.47;0.45;;;5.80;99.90;;;;;;4947948;28;20074;-65
2021/10/24 01:32:35;;;;;;;1.40;0.50;;;5.80;99.90;;;;;;4966620;28;20090;-65
2021/10/24 01:35:03;;;;;;;0.68;0.50;;;5.80;99.90;;;;;;4948940;28;20420;-65
2021/10/24 01:37:42;;;;;;;0.32;0.30;;;5.90;99.90;;;;;;4951469;28;20047;-67
2021/10/24 01:40:12;;;;;;;0.50;0.50;;;6.00;99.90;;;;;;4950162;28;20478;-63
2021/10/24 01:42:54;;;;;;;0.43;0.40;;;6.00;99.90;;;;;;4949054;28;20525;-64
2021/10/24 01:45:26;;;;;;;0.55;0.25;;;6.10;99.90;;;;;;4949036;28;20055;-67
2021/10/24 01:47:58;;;;;;;3.40;0.40;;;6.20;99.90;;;;;;4960612;28;20121;-66
2021/10/24 01:50:25;;;;;;;0.20;0.15;;;6.20;99.90;;;;;;4955952;28;20058;-63
2021/10/24 01:52:52;;;;;;;0.43;0.28;;;6.30;99.90;;;;;;4962732;28;20047;-64
2021/10/24 01:55:20;;;;;;;0.30;0.30;;;6.30;99.90;;;;;;4948496;28;20097;-64
2021/10/24 01:57:52;;;;;;;0.88;0.70;;;6.30;99.90;;;;;;4962519;28;20216;-64
2021/10/24 02:00:21;;;;;;;0.50;0.50;;;6.30;99.90;;;;;;4963238;28;20058;-63
2021/10/24 02:02:52;;;;;;;0.38;0.38;;;6.30;99.90;;;;;;4964001;28;20615;-66
2021/10/24 02:05:30;;;;;;;0.32;0.32;;;6.30;99.90;;;;;;4963646;28;20066;-65
2021/10/24 02:07:57;;;;;;;0.60;0.60;;;6.30;99.90;;;;;;4956239;28;20115;-63
2021/10/24 02:10:25;;;;;;;1.02;0.70;;;6.10;99.90;;;;;;4963993;28;20078;-64
2021/10/24 02:12:53;;;;;;;1.42;0.70;;;6.00;99.90;;;;;;4948304;28;20427;-68
2021/10/24 02:15:23;;;;;;;3.13;0.68;;;5.70;99.90;;;;;;4963155;28;20142;-63
2021/10/24 02:17:51;;;;;;;0.52;0.50;;;5.50;99.90;;;;;;4964353;28;20051;-64
2021/10/24 02:20:23;;;;;;;0.43;0.40;;;5.40;99.90;;;;;;4951126;28;20074;-69
2021/10/24 02:22:50;;;;;;;0.93;0.50;;;5.30;99.90;;;;;;4964068;28;20106;-64
2021/10/24 02:25:20;;;;;;;0.40;0.40;;;5.20;99.90;;;;;;4950511;28;20098;-64
2021/10/24 02:27:49;;;;;;;1.40;0.60;;;5.20;99.90;;;;;;4943460;28;20047;-67
2021/10/24 02:30:16;;;;;;;1.83;0.65;;;5.10;99.90;;;;;;4958583;28;20634;-66
2021/10/24 02:32:43;;;;;;;2.47;0.60;;;5.00;99.90;;;;;;4962198;28;20055;-62
2021/10/24 02:35:25;;;;;;;0.63;0.43;;;4.90;99.90;;;;;;4962647;28;20166;-64
2021/10/24 02:37:54;;;;;;;0.70;0.50;;;4.90;99.90;;;;;;4948891;28;20134;-64
2021/10/24 02:40:23;;;;;;;1.33;0.50;;;4.90;99.90;;;;;;4965168;28;20055;-71
2021/10/24 02:42:53;;;;;;;1.50;1.13;;;4.90;99.90;;;;;;4981441;28;20073;-64
2021/10/24 02:45:27;;;;;;;0.47;0.47;;;4.90;99.90;;;;;;4965640;28;20346;-63
2021/10/24 02:47:56;;;;;;;0.85;0.73;;;4.90;99.90;;;;;;4981106;28;20109;-65
2021/10/24 02:50:23;;;;;;;1.88;0.45;;;4.80;99.90;;;;;;4982690;28;20057;-64
2021/10/24 02:52:51;;;;;;;0.90;0.50;;;4.80;99.90;;;;;;4987016;28;20051;-65
2021/10/24 02:55:18;;;;;;;0.40;0.40;;;4.80;99.90;;;;;;4968419;28;20049;-67
2021/10/24 02:57:45;;;;;;;2.53;0.40;;;4.70;99.90;;;;;;4982068;28;20113;-65
2021/10/24 03:00:13;;;;;;;0.40;0.40;;;4.70;99.90;;;;;;4980438;28;20062;-64
2021/10/24 03:02:40;;;;;;;0.63;0.63;;;4.70;99.90;;;;;;4946264;28;20062;-68
2021/10/24 03:05:08;;;;;;;0.80;0.52;;;4.70;99.90;;;;;;4947684;28;20346;-63
2021/10/24 03:07:36;;;;;;;0.68;0.50;;;4.70;99.90;;;;;;4961783;28;20512;-63
2021/10/24 03:10:04;;;;;;;2.40;0.63;;;4.60;99.90;;;;;;4945635;28;20046;-65
2021/10/24 03:12:31;;;;;;;0.80;0.50;;;4.60;99.90;;;;;;4962861;28;20047;-66
2021/10/24 03:15:00;;;;;;;1.05;0.95;;;4.60;99.90;;;;;;4963493;28;20059;-66
2021/10/24 03:17:26;;;;;;;0.95;0.50;;;4.60;99.90;;;;;;4947208;28;20543;-66
2021/10/24 03:19:53;;;;;;;0.60;0.40;;;4.60;99.90;;;;;;4964370;28;20055;-64
2021/10/24 03:22:20;;;;;;;0.57;0.30;;;4.60;99.90;;;;;;4965786;28;20046;-64
2021/10/24 03:24:47;;;;;;;0.50;0.50;;;4.60;99.90;;;;;;4967124;28;20103;-63
2021/10/24 03:27:14;;;;;;;2.05;0.60;;;4.60;99.90;;;;;;4982083;28;20125;-68
2021/10/24 03:29:42;;;;;;;1.55;0.52;;;4.60;99.90;;;;;;4981500;28;20054;-65
2021/10/24 03:32:09;;;;;;;0.35;0.35;;;4.60;99.90;;;;;;4980333;28;20460;-64
2021/10/24 03:34:36;;;;;;;1.08;0.55;;;4.50;99.90;;;;;;4960867;28;20055;-63
2021/10/24 03:37:04;;;;;;;0.85;0.63;;;4.50;99.90;;;;;;4962633;28;20062;-64
2021/10/24 03:39:34;;;;;;;1.33;0.50;;;4.50;99.90;;;;;;4962514;28;20067;-66
2021/10/24 03:42:04;;;;;;;2.53;0.30;;;4.50;99.90;;;;;;4960301;28;20058;-64
2021/10/24 03:44:31;;;;;;;1.20;0.63;;;4.40;99.90;;;;;;4949583;28;20044;-66
2021/10/24 03:46:58;;;;;;;2.65;0.60;;;4.40;99.90;;;;;;4948055;28;20051;-66
2021/10/24 03:49:27;;;;;;;0.73;0.43;;;4.40;99.90;;;;;;4962210;28;20074;-63
2021/10/24 03:51:54;;;;;;;1.23;0.40;;;4.40;99.90;;;;;;4961036;28;20054;-64
2021/10/24 03:54:21;;;;;;;2.22;0.55;;;4.40;99.90;;;;;;4947594;28;20138;-64
2021/10/24 03:56:48;;;;;;;2.00;0.75;;;4.40;99.90;;;;;;4962236;28;20055;-64
2021/10/24 03:59:15;;;;;;;0.40;0.40;;;4.30;99.90;;;;;;4962561;28;20421;-64
2021/10/24 04:01:42;;;;;;;1.17;0.63;;;4.30;99.90;;;;;;4960150;28;20047;-64
2021/10/24 04:04:10;;;;;;;1.40;0.75;;;4.30;99.90;;;;;;4955417;28;20062;-64
2021/10/24 04:06:38;;;;;;;1.52;0.77;;;4.20;99.90;;;;;;4947747;28;20361;-66
2021/10/24 04:09:06;;;;;;;1.17;0.73;;;4.20;99.90;;;;;;4958986;28;20043;-66
2021/10/24 04:11:34;;;;;;;0.47;0.45;;;4.20;99.90;;;;;;4974068;28;20074;-64
2021/10/24 04:14:04;;;;;;;0.55;0.47;;;4.20;99.90;;;;;;4963404;28;20057;-66
2021/10/24 04:16:32;;;;;;;0.68;0.68;;;4.10;99.90;;;;;;4975994;28;20043;-64
2021/10/24 04:19:05;;;;;;;1.27;0.70;;;4.10;99.90;;;;;;4946158;28;20047;-66
2021/10/24 04:21:39;;;;;;;1.00;0.60;;;4.20;99.90;;;;;;4961334;28;20135;-64
2021/10/24 04:24:11;;;;;;;1.15;0.40;;;4.10;99.90;;;;;;4958484;28;20586;-66
2021/10/24 04:26:38;;;;;;;0.43;0.40;;;4.10;99.90;;;;;;4959020;28;20089;-66
2021/10/24 04:29:08;;;;;;;2.97;0.70;;;4.10;99.90;;;;;;4946798;28;20043;-67
2021/10/24 04:31:35;;;;;;;2.90;0.95;;;4.10;99.90;;;;;;4949555;28;20137;-64
2021/10/24 04:34:02;;;;;;;1.23;0.70;;;4.10;99.90;;;;;;4945045;28;20118;-66
2021/10/24 04:36:30;;;;;;;0.45;0.43;;;4.10;99.90;;;;;;4962500;28;20051;-64
2021/10/24 04:38:57;;;;;;;0.32;0.32;;;4.10;99.90;;;;;;4945778;28;20057;-65
2021/10/24 04:41:24;;;;;;;0.43;0.32;;;4.10;99.90;;;;;;4952393;28;20130;-66
2021/10/24 04:43:51;;;;;;;1.70;0.35;;;4.10;99.90;;;;;;4950736;28;20406;-66
2021/10/24 04:46:20;;;;;;;0.63;0.50;;;4.10;99.90;;;;;;4960561;28;20089;-65
2021/10/24 04:48:47;;;;;;;0.55;0.50;;;4.10;99.90;;;;;;4978997;28;20051;-63
2021/10/24 04:51:15;;;;;;;0.45;0.40;;;4.10;99.90;;;;;;4981349;28;20113;-65
2021/10/24 04:53:42;;;;;;;0.20;0.20;;;4.10;99.90;;;;;;4967502;28;20058;-63
2021/10/24 04:56:09;;;;;;;0.82;0.60;;;4.10;99.90;;;;;;4964696;28;20065;-64
2021/10/24 04:58:37;;;;;;;1.50;0.50;;;4.10;99.90;;;;;;4979853;28;20516;-63
2021/10/24 05:01:04;;;;;;;0.70;0.40;;;4.10;99.90;;;;;;4962847;28;20051;-64
2021/10/24 05:03:32;;;;;;;0.80;0.60;;;4.20;99.90;;;;;;4975676;28;20130;-67
2021/10/24 05:06:03;;;;;;;0.43;0.40;;;4.10;99.90;;;;;;4961786;28;20047;-64
2021/10/24 05:08:33;;;;;;;1.77;0.50;;;4.10;99.90;;;;;;4975946;28;20089;-69
2021/10/24 05:11:01;;;;;;;0.70;0.40;;;4.10;99.90;;;;;;4980857;28;20051;-66
2021/10/24 05:13:28;;;;;;;0.40;0.40;;;4.10;99.90;;;;;;4979653;28;20504;-63
2021/10/24 05:15:55;;;;;;;0.60;0.35;;;4.10;99.90;;;;;;4963370;28;20468;-65
2021/10/24 05:18:22;;;;;;;1.40;0.63;;;4.10;99.90;;;;;;4963294;28;20417;-63
2021/10/24 05:20:49;;;;;;;1.30;0.68;;;4.10;99.90;;;;;;4947649;28;20091;-63
2021/10/24 05:23:17;;;;;;;1.27;0.40;;;4.10;99.90;;;;;;4962492;28;20146;-64
2021/10/24 05:26:04;;;;;;;2.25;0.63;;;4.10;99.90;;;;;;4944382;28;20051;-64
2021/10/24 05:28:32;;;;;;;1.48;0.68;;;4.00;99.90;;;;;;4959612;28;20149;-64
2021/10/24 05:30:59;;;;;;;1.15;0.45;;;4.00;99.90;;;;;;4945953;28;20051;-65
2021/10/24 05:33:28;;;;;;;0.75;0.50;;;4.00;99.90;;;;;;4945740;28;20055;-65
2021/10/24 05:36:24;;;;;;;3.35;0.40;;;4.00;99.90;;;;;;4959817;28;20763;-64
2021/10/24 05:38:51;;;;;;;0.40;0.40;;;4.00;99.90;;;;;;4946264;28;20055;-62
2021/10/24 05:41:24;;;;;;;1.33;0.70;;;4.00;99.90;;;;;;4960207;28;20071;-67
2021/10/24 05:43:53;;;;;;;2.88;0.63;;;4.00;99.90;;;;;;4960313;28;20055;-63
2021/10/24 05:46:20;;;;;;;0.55;0.47;;;4.10;99.90;;;;;;4956971;28;20118;-65
2021/10/24 05:48:47;;;;;;;0.82;0.45;;;4.10;99.90;;;;;;4948840;28;20130;-62
2021/10/24 05:51:20;;;;;;;0.60;0.52;;;4.10;99.90;;;;;;4960036;28;20049;-63
2021/10/24 05:53:47;;;;;;;1.05;1.05;;;4.10;99.90;;;;;;4962447;28;20470;-68
2021/10/24 05:56:21;;;;;;;4.00;0.60;;;4.10;99.90;;;;;;4957005;28;20165;-63
2021/10/24 05:58:49;;;;;;;1.10;0.93;;;4.10;99.90;;;;;;4959426;28;20071;-65
2021/10/24 06:01:27;;;;;;;0.70;0.70;;;4.10;99.90;;;;;;4942340;28;20114;-63
2021/10/24 06:04:13;;;;;;;1.10;0.93;;;4.10;99.90;;;;;;4948510;28;20085;-66
2021/10/24 06:06:58;;;;;;;1.23;0.82;;;4.20;99.90;;;;;;4950961;28;20074;-69
2021/10/24 06:09:39;;;;;;;1.23;0.77;;;4.10;99.90;;;;;;4950171;28;20055;-63
2021/10/24 06:12:12;;;;;;;8.27;3.80;;;4.20;99.90;;;;;;4968641;28;20063;-64
2021/10/24 06:14:40;;;;;;;1.25;1.10;;;4.20;99.90;;;;;;4953953;28;20129;-64
2021/10/24 06:17:08;;;;;;;2.30;0.88;;;4.30;99.90;;;;;;4951622;28;20170;-64
2021/10/24 06:19:36;;;;;;;0.70;0.45;;;4.30;99.90;;;;;;4951000;28;20046;-65
2021/10/24 06:22:04;;;;;;;0.75;0.52;;;4.40;99.90;;;;;;4963380;28;20051;-64
2021/10/24 06:24:33;;;;;;;2.72;1.25;;;4.50;99.90;;;;;;4963312;28;20043;-66
2021/10/24 06:27:01;;;;;;;0.70;0.65;;;4.60;99.90;;;;;;4947310;28;20105;-64
2021/10/24 06:29:28;;;;;;;1.23;0.63;;;4.70;99.90;;;;;;4953300;28;20540;-69
2021/10/24 06:31:55;;;;;;;0.85;0.63;;;4.80;99.90;;;;;;4946039;28;20491;-69
2021/10/24 06:34:40;;;;;;;0.75;0.73;;;4.90;99.90;;;;;;4948148;28;20058;-66
2021/10/24 06:37:24;;;;;;;1.08;0.98;;;4.90;99.90;;;;;;4949750;28;20055;-66
2021/10/24 06:39:58;;;;;;;2.75;0.93;;;5.00;99.90;;;;;;4961662;28;20749;-67
2021/10/24 06:42:25;;;;;;;0.73;0.73;;;5.10;99.90;;;;;;4962552;28;20067;-64
2021/10/24 06:45:06;;;;;;;0.77;0.75;;;5.10;99.90;;;;;;4949700;28;20055;-63
2021/10/24 06:47:52;;;;;;;0.75;0.75;;;5.20;99.90;;;;;;4951128;28;20058;-63
2021/10/24 06:50:37;;;;;;;1.65;1.55;;;5.20;99.90;;;;;;4947956;28;20137;-65
2021/10/24 06:53:24;;;;;;;3.30;0.90;;;5.30;99.90;;;;;;4946783;28;20070;-64
2021/10/24 06:56:26;;;;;;;2.35;1.23;;;5.40;99.90;;;;;;4960352;28;20129;-64
2021/10/24 06:59:11;;;;;;;2.75;1.00;;;5.40;99.90;;;;;;4951115;28;20062;-66
2021/10/24 07:01:57;;;;;;;3.33;1.88;;;5.50;99.90;;;;;;4946649;28;20157;-71
2021/10/24 07:04:47;;;;;;;1.08;0.82;;;5.60;99.90;;;;;;4947026;28;20081;-65
2021/10/24 07:07:25;;;;;;;2.20;0.60;;;5.60;99.90;;;;;;4964509;28;20061;-73
2021/10/24 07:09:56;;;;;;;6.85;1.38;;;5.70;99.90;;;;;;4959853;28;20053;-64
2021/10/24 07:12:23;;;;;;;0.77;0.70;;;5.80;99.90;;;;;;4963612;28;20625;-64
2021/10/24 07:14:50;;;;;;;1.73;0.95;;;5.80;99.90;;;;;;4946519;28;20121;-63
2021/10/24 07:17:16;;;;;;;1.92;1.38;;;5.80;99.90;;;;;;4961237;28;20051;-63
2021/10/24 07:19:43;;;;;;;1.73;1.55;;;5.90;99.90;;;;;;4946872;28;20142;-64
2021/10/24 07:22:13;;;;;;;5.37;1.80;;;5.90;99.90;;;;;;4948436;28;20055;-71
2021/10/24 07:24:58;;;;;;;3.25;1.75;;;5.90;99.90;;;;;;4945727;28;20619;-65
2021/10/24 07:27:29;;;;;;;1.45;1.15;;;6.00;99.90;;;;;;4960791;28;20154;-66
2021/10/24 07:29:58;;;;;;;2.17;1.15;;;6.10;99.90;;;;;;4962092;28;20062;-65
2021/10/24 07:32:25;;;;;;;1.60;1.10;;;6.10;99.90;;;;;;4961921;28;20055;-67
2021/10/24 07:35:11;;;;;;;2.65;2.45;;;6.20;99.90;;;;;;4945292;28;20058;-64
2021/10/24 07:37:39;;;;;;;2.40;1.77;;;6.30;99.90;;;;;;4963060;28;20055;-64
2021/10/24 07:40:07;;;;;;;1.67;1.48;;;6.30;99.90;;;;;;4959830;28;20102;-66
2021/10/24 07:42:36;;;;;;;1.65;1.10;;;6.40;99.90;;;;;;4960307;28;20485;-69
2021/10/24 07:45:04;;;;;;;1.48;0.73;;;6.50;99.90;;;;;;4962460;28;20049;-64
2021/10/24 07:47:32;;;;;;;0.65;0.65;;;6.60;99.90;;;;;;4947274;28;20063;-64
2021/10/24 07:50:02;;;;;;;0.95;0.50;;;6.80;99.90;;;;;;4956835;28;20134;-65
2021/10/24 07:52:34;;;;;;;1.10;1.00;;;6.90;99.90;;;;;;4962903;28;20051;-70
2021/10/24 07:55:14;;;;;;;1.00;0.90;;;7.00;99.90;;;;;;4963947;28;20039;-65
2021/10/24 07:57:43;;;;;;;0.73;0.47;;;7.10;99.90;;;;;;4961273;28;20043;-67
2021/10/24 08:00:10;;;;;;;2.47;0.50;;;7.20;99.90;;;;;;4961829;28;20110;-63
2021/10/24 08:02:40;;;;;;;1.08;0.52;;;7.30;99.90;;;;;;4952546;28;20047;-68
2021/10/24 08:05:13;;;;;;;1.15;0.90;;;7.50;99.90;;;;;;4961398;28;20054;-68
2021/10/24 08:07:43;;;;;;;2.95;1.77;;;7.60;99.90;;;;;;4952629;28;20452;-64
2021/10/24 08:10:15;;;;;;;2.50;0.43;;;7.80;99.90;;;;;;4963454;28;20507;-64
2021/10/24 08:12:44;;;;;;;0.88;0.47;;;7.90;99.90;;;;;;4959525;28;20134;-68
2021/10/24 08:15:13;;;;;;;2.88;0.32;;;8.00;99.90;;;;;;4985222;28;20070;-64
2021/10/24 08:17:42;;;;;;;2.03;0.52;;;8.10;99.90;;;;;;4969573;28;20476;-64
2021/10/24 08:20:28;;;;;;;1.55;0.30;;;8.20;99.90;;;;;;4949001;28;20201;-63
2021/10/24 08:22:54;;;;;;;0.85;0.55;;;8.20;99.90;;;;;;4953873;28;20097;-67
2021/10/24 08:25:23;;;;;;;2.47;0.65;;;8.30;99.90;;;;;;4947377;28;20047;-63
2021/10/24 08:27:50;;;;;;;1.45;1.00;;;8.30;99.90;;;;;;4960305;28;20125;-63
2021/10/24 08:30:37;;;;;;;1.15;0.47;;;8.40;99.90;;;;;;4946712;28;20058;-70
2021/10/24 08:33:16;;;;;;;3.85;0.57;;;8.40;99.90;;;;;;4962263;28;20050;-66
2021/10/24 08:35:43;;;;;;;0.63;0.43;;;8.50;99.90;;;;;;4945931;28;20043;-69
2021/10/24 08:38:11;;;;;;;3.28;1.25;;;8.50;99.90;;;;;;4949777;28;20154;-63
2021/10/24 08:40:46;;;;;;;9.52;1.30;;;8.60;99.90;;;;;;4947102;28;20390;-63
2021/10/24 08:43:14;;;;;;;2.78;1.00;;;8.60;99.90;;;;;;4945061;28;20075;-64
2021/10/24 08:45:43;;;;;;;2.70;1.85;;;8.70;99.90;;;;;;4950890;28;20066;-64
2021/10/24 08:48:10;;;;;;;2.40;1.35;;;8.70;99.90;;;;;;4962185;28;20523;-64
2021/10/24 08:50:37;;;;;;;3.83;1.20;;;8.70;99.90;;;;;;4950874;28;20071;-65
2021/10/24 08:53:06;;;;;;;5.18;2.20;;;8.80;99.90;;;;;;4949492;28;20047;-64
2021/10/24 08:55:33;;;;;;;6.95;2.92;;;8.80;99.90;;;;;;4946629;28;20108;-65
2021/10/24 08:58:01;;;;;;;6.75;1.08;;;8.90;99.90;;;;;;4946632;28;20129;-63
2021/10/24 09:00:40;;;;;;;6.05;0.82;;;8.90;99.90;;;;;;4948396;28;20357;-63
2021/10/24 09:03:11;;;;;;;3.90;1.38;;;9.00;99.90;;;;;;4967654;28;20105;-65
2021/10/24 09:05:50;;;;;;;5.90;1.23;;;9.00;99.90;;;;;;4968988;28;20043;-65
2021/10/24 09:08:19;;;;;;;4.13;1.80;;;9.00;99.90;;;;;;4972657;28;20055;-72
2021/10/24 09:10:49;;;;;;;4.30;1.23;;;9.10;99.90;;;;;;4963825;28;20070;-64
2021/10/24 09:13:19;;;;;;;4.40;1.65;;;9.10;99.90;;;;;;4964366;28;20062;-68
2021/10/24 09:15:53;;;;;;;2.97;1.30;;;9.20;99.90;;;;;;4979086;28;20634;-65
2021/10/24 09:18:28;;;;;;;7.95;1.05;;;9.30;99.90;;;;;;4963700;28;20058;-68
2021/10/24 09:20:55;;;;;;;4.32;1.10;;;9.30;99.90;;;;;;4964736;28;20038;-69
2021/10/24 09:23:22;;;;;;;5.80;1.05;;;9.40;99.90;;;;;;4963509;28;20423;-68
2021/10/24 09:25:55;;;;;;;18.33;7.15;;;9.50;99.90;;;;;;4963102;28;20611;-64
2021/10/24 09:28:26;;;;;;;19.35;8.00;;;9.50;99.90;;;;;;4941644;28;20452;-65
2021/10/24 09:31:04;;;;;;;12.77;3.80;;;9.50;99.90;;;;;;4941652;28;20222;-64
2021/10/24 09:33:45;;;;;;;14.45;7.00;;;9.50;99.90;;;;;;4956947;28;20058;-74
2021/10/24 09:36:13;;;;;;;10.73;2.63;;;9.50;99.90;;;;;;4961686;28;20117;-67
2021/10/24 09:39:09;;;;;;;6.97;1.20;;;9.40;99.90;;;;;;4966337;28;20047;-65
2021/10/24 09:41:36;;;;;;;4.22;1.35;;;9.40;99.90;;;;;;4951343;28;20047;-64
2021/10/24 09:44:16;;;;;;;12.00;1.85;;;9.40;99.90;;;;;;4961106;28;20102;-68
2021/10/24 09:46:55;;;;;;;8.30;1.55;;;9.40;99.90;;;;;;4951016;28;20043;-65
2021/10/24 09:49:23;;;;;;;4.75;1.48;;;9.50;99.90;;;;;;4947544;28;20059;-68
2021/10/24 09:51:55;;;;;;;4.97;1.23;;;9.50;99.90;;;;;;4963106;28;20058;-64
2021/10/24 09:54:25;;;;;;;12.07;2.40;;;9.50;99.90;;;;;;4950378;28;20058;-66
2021/10/24 09:56:53;;;;;;;10.00;1.42;;;9.60;99.90;;;;;;4973234;28;20070;-66
2021/10/24 09:59:24;;;;;;;6.63;1.45;;;9.60;99.90;;;;;;4967139;28;20138;-67
2021/10/24 10:01:52;;;;;;;6.10;1.60;;;9.60;99.90;;;;;;4967607;28;20055;-73
2021/10/24 10:04:24;;;;;;;3.90;1.77;;;9.60;99.90;;;;;;4966109;28;20055;-67
2021/10/24 10:06:52;;;;;;;2.65;1.13;;;9.70;99.90;;;;;;4968135;28;20653;-68
2021/10/24 10:09:19;;;;;;;7.57;2.20;;;9.70;99.90;;;;;;4955460;28;20069;-69
2021/10/24 10:11:54;;;;;;;4.75;1.45;;;9.80;99.90;;;;;;4947696;28;20047;-63
2021/10/24 10:14:28;;;;;;;8.88;2.47;;;9.80;99.90;;;;;;4943959;28;20121;-69
2021/10/24 10:17:04;;;;;;;5.20;1.75;;;9.80;99.90;;;;;;4965558;28;20081;-71
2021/10/24 10:19:41;;;;;;;6.57;1.17;;;9.80;99.90;;;;;;4966184;28;20043;-67
2021/10/24 10:22:22;;;;;;;3.60;1.05;;;9.80;99.90;;;;;;4975852;28;20134;-66
2021/10/24 10:24:58;;;;;;;6.82;1.33;;;9.90;99.90;;;;;;4946879;28;20094;-66
2021/10/24 10:27:39;;;;;;;2.90;2.60;;;9.90;99.90;;;;;;4943771;28;20594;-71
2021/10/24 10:30:15;;;;;;;13.82;2.85;;;9.90;99.90;;;;;;4942770;28;20151;-69
2021/10/24 10:32:48;;;;;;;8.00;2.25;;;9.90;99.90;;;;;;4952765;28;20205;-69
2021/10/24 10:35:19;;;;;;;6.40;1.88;;;9.90;99.90;;;;;;4946874;28;20492;-67
2021/10/24 10:38:01;;;;;;;13.55;3.70;;;10.00;99.90;;;;;;4948433;28;20082;-65
2021/10/24 10:40:38;;;;;;;5.65;1.45;;;10.00;99.90;;;;;;4954567;28;20381;-68
2021/10/24 10:43:20;;;;;;;8.38;1.70;;;10.00;99.90;;;;;;4956974;28;20051;-64
2021/10/24 10:45:55;;;;;;;4.88;1.10;;;10.00;99.90;;;;;;4950767;28;20046;-64
2021/10/24 10:48:27;;;;;;;3.22;1.75;;;10.00;99.90;;;;;;4971080;28;20058;-64
2021/10/24 10:51:00;;;;;;;2.25;1.67;;;10.00;99.90;;;;;;4972079;28;20161;-70
2021/10/24 10:53:30;;;;;;;12.25;1.90;;;10.10;99.90;;;;;;4962043;28;20055;-64
2021/10/24 10:55:57;;;;;;;;;;;10.10;99.90;;;;;;4946849;28;20137;-65
2021/10/24 10:58:53;;;;;;;9.57;1.38;;;10.10;99.90;;;;;;4948520;28;19981;-66
2021/10/24 11:01:38;;;;;;;6.03;1.52;;;10.10;99.90;;;;;;4947569;28;20746;-68
2021/10/24 11:04:15;;;;;;;5.68;1.70;;;10.10;99.90;;;;;;4947617;28;20153;-64
2021/10/24 11:06:54;;;;;;;9.25;2.08;;;10.10;99.90;;;;;;4947041;28;20047;-64
2021/10/24 11:09:40;;;;;;;4.13;1.30;;;10.10;99.90;;;;;;4950494;28;20055;-66
2021/10/24 11:12:09;;;;;;;11.90;2.10;;;10.10;99.90;;;;;;4970517;28;20046;-64
2021/10/24 11:14:36;;;;;;;5.93;2.42;;;10.10;99.90;;;;;;4967057;28;20082;-66
2021/10/24 11:17:03;;;;;;;7.82;1.13;;;10.00;99.90;;;;;;4968686;28;20104;-64
2021/10/24 11:19:36;;;;;;;9.25;1.35;;;10.00;99.90;;;;;;4965834;28;20093;-65
2021/10/24 11:22:11;;;;;;;6.05;1.67;;;10.00;99.90;;;;;;4971327;28;20104;-64
2021/10/24 11:24:42;;;;;;;1.45;0.85;;;9.90;99.90;;;;;;4967033;28;20078;-64
2021/10/24 11:27:11;;;;;;;4.40;1.25;;;9.90;99.90;;;;;;4969171;28;20108;-64
2021/10/24 11:29:55;;;;;;;8.40;1.25;;;9.90;99.90;;;;;;4972251;28;20097;-65
2021/10/24 11:32:34;;;;;;;3.38;1.23;;;9.80;99.90;;;;;;4947344;28;20058;-68
2021/10/24 11:35:03;;;;;;;7.78;1.88;;;9.80;99.90;;;;;;4952771;28;20054;-66
2021/10/24 11:37:52;;;;;;;7.45;2.28;;;9.80;99.90;;;;;;4951730;28;20047;-65
2021/10/24 11:40:23;;;;;;;1.92;0.70;;;9.80;99.90;;;;;;4946271;28;20417;-65
2021/10/24 11:43:09;;;;;;;2.75;0.90;;;9.80;99.90;;;;;;4944579;28;20051;-70
2021/10/24 11:45:43;;;;;;;6.13;1.38;;;9.80;99.90;;;;;;4947328;28;20097;-67
2021/10/24 11:48:16;;;;;;;3.13;1.20;;;9.90;99.90;;;;;;4945727;28;20043;-64
2021/10/24 11:50:58;;;;;;;6.25;2.25;;;10.00;99.90;;;;;;4951218;28;20067;-64
2021/10/24 11:53:37;;;;;;;2.63;1.48;;;10.00;99.90;;;;;;4946523;28;20091;-69
2021/10/24 11:56:15;;;;;;;5.30;2.50;;;10.00;99.90;;;;;;4947054;28;20039;-65
2021/10/24 12:01:24;;;;;;;12.30;6.70;;;10.00;99.90;;;;;;4954405;28;20071;-69
2021/10/24 12:04:12;;;;;;;17.50;9.77;;;10.00;99.90;;;;;;4945860;28;20054;-66
2021/10/24 12:06:47;;;;;;;13.20;4.88;;;10.00;99.90;;;;;;4949607;28;20051;-65
2021/10/24 12:09:25;;;;;;;17.25;6.28;;;10.00;99.90;;;;;;4956365;28;20631;-70
2021/10/24 12:11:52;;;;;;;9.15;3.70;;;10.10;99.90;;;;;;4944393;28;20058;-66
2021/10/24 12:14:18;;;;;;;4.70;1.67;;;10.10;99.90;;;;;;4945196;28;20138;-71
2021/10/24 12:16:46;;;;;;;2.70;0.75;;;10.10;99.90;;;;;;4955176;28;20050;-67
2021/10/24 12:19:15;;;;;;;3.38;1.75;;;10.10;99.90;;;;;;4956671;28;20409;-65
2021/10/24 12:22:07;;;;;;;5.22;1.80;;;10.10;99.90;;;;;;4947018;28;20135;-65
2021/10/24 12:24:50;;;;;;;3.50;1.13;;;10.10;99.90;;;;;;4963715;28;20722;-65
2021/10/24 12:27:20;;;;;;;2.25;1.15;;;10.10;99.90;;;;;;4952586;28;20357;-66
2021/10/24 12:30:03;;;;;;;6.20;2.08;;;10.10;99.90;;;;;;4945951;28;20055;-63
2021/10/24 12:32:31;;;;;;;7.57;1.67;;;10.10;99.90;;;;;;4944542;28;20107;-63
2021/10/24 12:35:04;;;;;;;4.55;1.42;;;10.00;99.90;;;;;;4944170;28;20147;-64
2021/10/24 12:37:32;;;;;;;5.50;1.15;;;10.00;99.90;;;;;;4957612;28;20055;-64
2021/10/24 12:40:18;;;;;;;5.35;1.73;;;10.00;99.90;;;;;;4976845;28;20166;-63
2021/10/24 12:43:03;;;;;;;4.72;1.23;;;10.00;99.90;;;;;;4961463;28;20101;-65
2021/10/24 12:45:40;;;;;;;3.83;1.70;;;10.00;99.90;;;;;;4963351;28;20050;-63
2021/10/24 12:48:07;;;;;;;6.60;1.90;;;10.00;99.90;;;;;;4959874;28;20081;-66
2021/10/24 12:50:35;;;;;;;4.53;1.50;;;10.00;99.90;;;;;;4945681;28;20051;-66
2021/10/24 12:53:09;;;;;;;5.07;1.77;;;10.00;99.90;;;;;;4944269;28;20055;-67
2021/10/24 12:55:38;;;;;;;4.07;1.48;;;10.00;99.90;;;;;;4944660;28;20079;-70
2021/10/24 12:58:05;;;;;;;2.83;0.93;;;10.00;99.90;;;;;;4941259;28;20188;-63
2021/10/24 13:00:35;;;;;;;12.13;2.33;;;10.00;99.90;;;;;;4941876;28;20114;-63
2021/10/24 13:03:02;;;;;;;10.27;1.23;;;10.00;99.90;;;;;;4944718;28;20177;-63
2021/10/24 13:05:30;;;;;;;2.53;1.27;;;9.90;99.90;;;;;;4944461;28;20106;-64
2021/10/24 13:07:57;;;;;;;8.93;3.10;;;9.90;99.90;;;;;;4942491;28;20405;-63
2021/10/24 13:10:23;;;;;;;3.33;1.70;;;9.90;99.90;;;;;;4944636;28;20130;-63
2021/10/24 13:12:50;;;;;;;5.80;1.85;;;9.90;99.90;;;;;;4952141;28;20070;-66
2021/10/24 13:15:17;;;;;;;3.45;1.50;;;9.90;99.90;;;;;;4961958;28;20051;-65
2021/10/24 13:17:45;;;;;;;7.50;1.58;;;9.90;99.90;;;;;;4964235;28;20830;-66
2021/10/24 13:20:11;;;;;;;11.05;1.65;;;9.90;99.90;;;;;;4959434;28;20142;-65